KPF6LP EKBI-LFSB
Flight info
| Callsign | KPF6LP |
|---|---|
| Flight time | 1h 20m |
| Altitude | 38000 |
| Route | ALS M852 EKERN N125 ELSOB/N0461F390 N850 GISEM DCT OMOGI/N0461F350 T721 SUNEG T715 RIGVI |
| Aircraft | CL60/M-SBDE1E2E3FGHIJ1J4J5J7M3RWXYZ/LB1V1D1 |
Departure
| Time | 2026-05-07 11:48 |
|---|---|
| Airport | Billund Airport (EKBI) |
Arrival
| Time | 2026-05-07 13:08 |
|---|---|
| Airport | EuroAirport Basel–Mulhouse–Freiburg (LFSB) |
| Time | Latitude | Longitude | Altitude | Speed | Heading |
|---|---|---|---|---|---|
| 2026-05-07 11:19 | 55.74326 | 9.14648 | 232 ft | 0 kts | 355° |
| 2026-05-07 11:43 | 55.74334 | 9.14658 | 232 ft | 2 kts | 90° |
| 2026-05-07 11:43 | 55.74294 | 9.14694 | 231 ft | 10 kts | 160° |
| 2026-05-07 11:44 | 55.74256 | 9.14791 | 232 ft | 12 kts | 79° |
| 2026-05-07 11:44 | 55.74265 | 9.14946 | 232 ft | 10 kts | 108° |
| 2026-05-07 11:44 | 55.74201 | 9.15020 | 232 ft | 10 kts | 122° |
| 2026-05-07 11:44 | 55.74196 | 9.15177 | 232 ft | 23 kts | 86° |
| 2026-05-07 11:45 | 55.74206 | 9.15449 | 232 ft | 20 kts | 86° |
| 2026-05-07 11:45 | 55.74213 | 9.15687 | 233 ft | 17 kts | 87° |
| 2026-05-07 11:45 | 55.74220 | 9.15906 | 234 ft | 17 kts | 87° |
| 2026-05-07 11:45 | 55.74225 | 9.16090 | 236 ft | 11 kts | 87° |
| 2026-05-07 11:46 | 55.74230 | 9.16233 | 238 ft | 15 kts | 85° |
| 2026-05-07 11:46 | 55.74237 | 9.16416 | 239 ft | 10 kts | 86° |
| 2026-05-07 11:46 | 55.74242 | 9.16575 | 241 ft | 17 kts | 87° |
| 2026-05-07 11:46 | 55.74247 | 9.16793 | 243 ft | 14 kts | 87° |
| 2026-05-07 11:47 | 55.74231 | 9.16905 | 244 ft | 9 kts | 163° |
| 2026-05-07 11:47 | 55.74170 | 9.16906 | 244 ft | 5 kts | 177° |
| 2026-05-07 11:47 | 55.74155 | 9.16908 | 244 ft | 6 kts | 177° |
| 2026-05-07 11:47 | 55.74087 | 9.16886 | 244 ft | 9 kts | 249° |
| 2026-05-07 11:48 | 55.74073 | 9.16497 | 240 ft | 68 kts | 265° |
| 2026-05-07 11:48 | 55.74034 | 9.15079 | 247 ft | 154 kts | 268° |
| 2026-05-07 11:48 | 55.73983 | 9.13069 | 871 ft | 178 kts | 270° |
| 2026-05-07 11:48 | 55.74426 | 9.10966 | 1715 ft | 197 kts | 311° |
| 2026-05-07 11:49 | 55.75305 | 9.09055 | 2761 ft | 200 kts | 308° |
| 2026-05-07 11:49 | 55.76056 | 9.07305 | 3671 ft | 168 kts | 308° |
| 2026-05-07 11:49 | 55.76841 | 9.05486 | 3986 ft | 209 kts | 307° |
| 2026-05-07 11:49 | 55.77801 | 9.03257 | 4675 ft | 243 kts | 307° |
| 2026-05-07 11:50 | 55.78882 | 9.00734 | 5421 ft | 266 kts | 307° |
| 2026-05-07 11:50 | 55.79767 | 8.97841 | 6161 ft | 271 kts | 282° |
| 2026-05-07 11:50 | 55.79666 | 8.94541 | 6939 ft | 274 kts | 249° |
| 2026-05-07 11:50 | 55.78587 | 8.91788 | 7708 ft | 278 kts | 221° |
| 2026-05-07 11:51 | 55.76918 | 8.90111 | 8465 ft | 281 kts | 196° |
| 2026-05-07 11:51 | 55.74964 | 8.89915 | 9236 ft | 289 kts | 168° |
| 2026-05-07 11:51 | 55.73137 | 8.91448 | 10008 ft | 292 kts | 143° |
| 2026-05-07 11:51 | 55.71512 | 8.93656 | 10713 ft | 306 kts | 142° |
| 2026-05-07 11:52 | 55.69725 | 8.96070 | 11078 ft | 341 kts | 143° |
| 2026-05-07 11:52 | 55.67786 | 8.98675 | 11577 ft | 351 kts | 143° |
| 2026-05-07 11:52 | 55.65821 | 9.01312 | 12319 ft | 354 kts | 143° |
| 2026-05-07 11:52 | 55.63847 | 9.03955 | 13078 ft | 361 kts | 143° |
| 2026-05-07 11:53 | 55.61808 | 9.06679 | 13926 ft | 373 kts | 143° |
| 2026-05-07 11:53 | 55.60001 | 9.09091 | 14872 ft | 377 kts | 143° |
| 2026-05-07 11:53 | 55.57885 | 9.11909 | 15981 ft | 380 kts | 143° |
| 2026-05-07 11:53 | 55.55778 | 9.14711 | 16996 ft | 385 kts | 143° |
| 2026-05-07 11:54 | 55.53630 | 9.17563 | 17920 ft | 390 kts | 144° |
| 2026-05-07 11:54 | 55.51448 | 9.20453 | 18793 ft | 395 kts | 144° |
| 2026-05-07 11:54 | 55.49227 | 9.23391 | 19654 ft | 401 kts | 144° |
| 2026-05-07 11:54 | 55.46951 | 9.26398 | 20478 ft | 406 kts | 144° |
| 2026-05-07 11:55 | 55.44667 | 9.29410 | 21287 ft | 411 kts | 144° |
| 2026-05-07 11:55 | 55.42362 | 9.32445 | 22041 ft | 416 kts | 144° |
| 2026-05-07 11:55 | 55.40030 | 9.35511 | 22763 ft | 420 kts | 143° |
| 2026-05-07 11:55 | 55.37679 | 9.38597 | 23442 ft | 425 kts | 144° |
| 2026-05-07 11:56 | 55.35302 | 9.41712 | 24093 ft | 430 kts | 143° |
| 2026-05-07 11:56 | 55.32888 | 9.44870 | 24773 ft | 434 kts | 143° |
| 2026-05-07 11:56 | 55.30447 | 9.48059 | 25424 ft | 438 kts | 143° |
| 2026-05-07 11:56 | 55.27980 | 9.51276 | 26029 ft | 442 kts | 143° |
| 2026-05-07 11:57 | 55.25486 | 9.54523 | 26603 ft | 446 kts | 143° |
| 2026-05-07 11:57 | 55.22973 | 9.57790 | 27131 ft | 450 kts | 143° |
| 2026-05-07 11:57 | 55.20448 | 9.61068 | 27653 ft | 453 kts | 142° |
| 2026-05-07 11:57 | 55.17903 | 9.64365 | 28161 ft | 456 kts | 142° |
| 2026-05-07 11:58 | 55.15342 | 9.67677 | 28651 ft | 459 kts | 143° |
| 2026-05-07 11:58 | 55.12785 | 9.70979 | 29092 ft | 462 kts | 143° |
| 2026-05-07 11:58 | 55.10179 | 9.74340 | 29519 ft | 465 kts | 143° |
| 2026-05-07 11:58 | 55.07557 | 9.77714 | 29936 ft | 467 kts | 142° |
| 2026-05-07 11:59 | 55.04938 | 9.81080 | 30329 ft | 469 kts | 142° |
| 2026-05-07 11:59 | 55.02294 | 9.84471 | 30817 ft | 468 kts | 142° |
| 2026-05-07 11:59 | 54.99696 | 9.87798 | 31288 ft | 467 kts | 142° |
| 2026-05-07 11:59 | 54.97063 | 9.91163 | 31763 ft | 465 kts | 142° |
| 2026-05-07 12:00 | 54.94376 | 9.94294 | 32200 ft | 465 kts | 149° |
| 2026-05-07 12:00 | 54.91420 | 9.96694 | 32622 ft | 465 kts | 159° |
| 2026-05-07 12:00 | 54.88309 | 9.98207 | 33013 ft | 465 kts | 169° |
| 2026-05-07 12:00 | 54.85083 | 9.98821 | 33373 ft | 465 kts | 178° |
| 2026-05-07 12:01 | 54.81839 | 9.98508 | 33738 ft | 464 kts | 188° |
| 2026-05-07 12:01 | 54.78654 | 9.97376 | 34076 ft | 464 kts | 194° |
| 2026-05-07 12:01 | 54.75527 | 9.96075 | 34404 ft | 464 kts | 194° |
| 2026-05-07 12:01 | 54.72378 | 9.94786 | 34735 ft | 463 kts | 193° |
| 2026-05-07 12:02 | 54.69208 | 9.93514 | 35031 ft | 463 kts | 193° |
| 2026-05-07 12:02 | 54.66087 | 9.92287 | 35292 ft | 461 kts | 193° |
| 2026-05-07 12:02 | 54.62968 | 9.91085 | 35592 ft | 459 kts | 193° |
| 2026-05-07 12:02 | 54.59853 | 9.89912 | 35908 ft | 455 kts | 193° |
| 2026-05-07 12:03 | 54.56775 | 9.88780 | 36201 ft | 453 kts | 193° |
| 2026-05-07 12:03 | 54.53674 | 9.87666 | 36480 ft | 450 kts | 193° |
| 2026-05-07 12:03 | 54.50606 | 9.86590 | 36732 ft | 448 kts | 192° |
| 2026-05-07 12:03 | 54.47562 | 9.85581 | 36933 ft | 447 kts | 192° |
| 2026-05-07 12:04 | 54.44498 | 9.84582 | 37138 ft | 446 kts | 192° |
| 2026-05-07 12:04 | 54.41435 | 9.83587 | 37319 ft | 446 kts | 192° |
| 2026-05-07 12:04 | 54.38379 | 9.82597 | 37484 ft | 446 kts | 192° |
| 2026-05-07 12:04 | 54.35314 | 9.81608 | 37635 ft | 446 kts | 192° |
| 2026-05-07 12:05 | 54.32261 | 9.80625 | 37800 ft | 446 kts | 192° |
| 2026-05-07 12:05 | 54.29229 | 9.79652 | 37972 ft | 445 kts | 192° |
| 2026-05-07 12:05 | 54.26163 | 9.78670 | 38082 ft | 447 kts | 192° |
| 2026-05-07 12:06 | 54.20029 | 9.76610 | 38087 ft | 452 kts | 193° |
| 2026-05-07 12:06 | 54.13812 | 9.74463 | 38086 ft | 454 kts | 193° |
| 2026-05-07 12:07 | 54.07631 | 9.72339 | 38091 ft | 453 kts | 193° |
| 2026-05-07 12:07 | 54.01427 | 9.70216 | 38084 ft | 453 kts | 192° |
| 2026-05-07 12:08 | 53.95259 | 9.68113 | 38081 ft | 453 kts | 192° |
| 2026-05-07 12:08 | 53.89068 | 9.66010 | 38075 ft | 453 kts | 192° |
| 2026-05-07 12:09 | 53.82834 | 9.63900 | 38076 ft | 453 kts | 192° |
| 2026-05-07 12:09 | 53.76638 | 9.61809 | 38068 ft | 453 kts | 192° |
| 2026-05-07 12:10 | 53.70460 | 9.59731 | 38072 ft | 452 kts | 192° |
| 2026-05-07 12:10 | 53.64289 | 9.57848 | 38064 ft | 452 kts | 187° |
| 2026-05-07 12:11 | 53.57972 | 9.57094 | 38058 ft | 453 kts | 185° |
| 2026-05-07 12:11 | 53.51667 | 9.56313 | 38056 ft | 454 kts | 187° |
| 2026-05-07 12:12 | 53.45370 | 9.54961 | 38058 ft | 454 kts | 188° |
| 2026-05-07 12:12 | 53.39091 | 9.53600 | 38047 ft | 454 kts | 188° |
| 2026-05-07 12:13 | 53.32807 | 9.52242 | 38047 ft | 454 kts | 188° |
| 2026-05-07 12:13 | 53.26533 | 9.50891 | 38043 ft | 453 kts | 188° |
| 2026-05-07 12:14 | 53.20267 | 9.49546 | 38036 ft | 453 kts | 188° |
| 2026-05-07 12:14 | 53.14028 | 9.48211 | 38033 ft | 453 kts | 188° |
| 2026-05-07 12:15 | 53.07744 | 9.46870 | 38043 ft | 453 kts | 188° |
| 2026-05-07 12:15 | 53.01503 | 9.45543 | 38043 ft | 454 kts | 188° |
| 2026-05-07 12:16 | 52.95217 | 9.44200 | 38038 ft | 454 kts | 188° |
| 2026-05-07 12:16 | 52.88957 | 9.42861 | 38039 ft | 454 kts | 188° |
| 2026-05-07 12:17 | 52.82658 | 9.41517 | 38041 ft | 453 kts | 188° |
| 2026-05-07 12:17 | 52.76342 | 9.40174 | 38042 ft | 453 kts | 188° |
| 2026-05-07 12:18 | 52.70071 | 9.38845 | 38046 ft | 453 kts | 188° |
| 2026-05-07 12:18 | 52.63822 | 9.37523 | 38046 ft | 454 kts | 188° |
| 2026-05-07 12:19 | 52.57565 | 9.35951 | 38042 ft | 454 kts | 190° |
| 2026-05-07 12:19 | 52.51302 | 9.34306 | 38048 ft | 453 kts | 189° |
| 2026-05-07 12:20 | 52.45074 | 9.32676 | 38045 ft | 454 kts | 189° |
| 2026-05-07 12:20 | 52.38844 | 9.31050 | 38036 ft | 454 kts | 189° |
| 2026-05-07 12:21 | 52.32568 | 9.29414 | 38043 ft | 453 kts | 189° |
| 2026-05-07 12:21 | 52.26342 | 9.27787 | 38040 ft | 453 kts | 189° |
| 2026-05-07 12:22 | 52.20068 | 9.26373 | 38042 ft | 453 kts | 187° |
| 2026-05-07 12:22 | 52.13782 | 9.25243 | 38038 ft | 454 kts | 187° |
| 2026-05-07 12:23 | 52.07496 | 9.24111 | 38031 ft | 455 kts | 187° |
| 2026-05-07 12:23 | 52.01219 | 9.22673 | 38039 ft | 455 kts | 189° |
| 2026-05-07 12:24 | 51.94956 | 9.21031 | 38034 ft | 455 kts | 189° |
| 2026-05-07 12:24 | 51.88723 | 9.19406 | 38030 ft | 454 kts | 189° |
| 2026-05-07 12:25 | 51.82449 | 9.18008 | 38021 ft | 454 kts | 188° |
| 2026-05-07 12:25 | 51.76157 | 9.16646 | 38018 ft | 454 kts | 188° |
| 2026-05-07 12:26 | 51.69869 | 9.15288 | 38022 ft | 454 kts | 188° |
| 2026-05-07 12:26 | 51.63567 | 9.13930 | 38028 ft | 454 kts | 188° |
| 2026-05-07 12:27 | 51.57311 | 9.12584 | 38029 ft | 455 kts | 188° |
| 2026-05-07 12:27 | 51.51001 | 9.11221 | 38026 ft | 455 kts | 189° |
| 2026-05-07 12:28 | 51.44770 | 9.09205 | 38027 ft | 454 kts | 193° |
| 2026-05-07 12:28 | 51.38586 | 9.07087 | 38029 ft | 453 kts | 193° |
| 2026-05-07 12:29 | 51.32413 | 9.04983 | 38021 ft | 453 kts | 193° |
| 2026-05-07 12:29 | 51.26186 | 9.02868 | 38017 ft | 454 kts | 193° |
| 2026-05-07 12:30 | 51.20020 | 9.00782 | 38010 ft | 454 kts | 193° |
| 2026-05-07 12:30 | 51.13811 | 8.98689 | 38017 ft | 454 kts | 193° |
| 2026-05-07 12:31 | 51.07629 | 8.96764 | 38012 ft | 454 kts | 191° |
| 2026-05-07 12:31 | 51.01378 | 8.94758 | 38010 ft | 454 kts | 193° |
| 2026-05-07 12:32 | 50.95203 | 8.92720 | 38011 ft | 454 kts | 193° |
| 2026-05-07 12:32 | 50.88988 | 8.90675 | 38012 ft | 454 kts | 193° |
| 2026-05-07 12:33 | 50.79677 | 8.87576 | 38014 ft | 454 kts | 193° |
| 2026-05-07 12:33 | 50.73481 | 8.85425 | 38015 ft | 454 kts | 193° |
| 2026-05-07 12:34 | 50.67287 | 8.83289 | 38019 ft | 454 kts | 193° |
| 2026-05-07 12:34 | 50.60964 | 8.82491 | 38020 ft | 456 kts | 178° |
| 2026-05-07 12:35 | 50.54626 | 8.83540 | 38021 ft | 456 kts | 175° |
| 2026-05-07 12:35 | 50.48304 | 8.84669 | 38022 ft | 456 kts | 175° |
| 2026-05-07 12:36 | 50.41991 | 8.85790 | 38023 ft | 457 kts | 175° |
| 2026-05-07 12:36 | 50.35642 | 8.86910 | 38024 ft | 457 kts | 175° |
| 2026-05-07 12:37 | 50.29324 | 8.88020 | 38024 ft | 457 kts | 175° |
| 2026-05-07 12:37 | 50.22962 | 8.89133 | 38025 ft | 457 kts | 175° |
| 2026-05-07 12:38 | 50.16622 | 8.90238 | 38026 ft | 457 kts | 175° |
| 2026-05-07 12:38 | 50.10293 | 8.91337 | 38026 ft | 456 kts | 175° |
| 2026-05-07 12:39 | 50.03972 | 8.92431 | 38026 ft | 456 kts | 175° |
| 2026-05-07 12:39 | 49.97633 | 8.93524 | 38027 ft | 456 kts | 175° |
| 2026-05-07 12:40 | 49.91312 | 8.94611 | 38024 ft | 457 kts | 175° |
| 2026-05-07 12:40 | 49.84983 | 8.95696 | 38023 ft | 457 kts | 175° |
| 2026-05-07 12:41 | 49.78614 | 8.96786 | 38022 ft | 457 kts | 175° |
| 2026-05-07 12:41 | 49.72403 | 8.97845 | 38021 ft | 456 kts | 175° |
| 2026-05-07 12:42 | 49.66101 | 8.98639 | 38017 ft | 454 kts | 183° |
| 2026-05-07 12:42 | 49.59859 | 8.97361 | 38012 ft | 451 kts | 192° |
| 2026-05-07 12:43 | 49.53638 | 8.95660 | 38015 ft | 452 kts | 192° |
| 2026-05-07 12:43 | 49.47451 | 8.93972 | 38009 ft | 452 kts | 192° |
| 2026-05-07 12:44 | 49.41232 | 8.92278 | 38018 ft | 452 kts | 192° |
| 2026-05-07 12:44 | 49.35003 | 8.90584 | 38015 ft | 452 kts | 192° |
| 2026-05-07 12:45 | 49.28802 | 8.88901 | 38015 ft | 452 kts | 192° |
| 2026-05-07 12:45 | 49.22723 | 8.86650 | 38017 ft | 449 kts | 202° |
| 2026-05-07 12:46 | 49.17175 | 8.82305 | 38014 ft | 446 kts | 216° |
| 2026-05-07 12:46 | 49.12377 | 8.76214 | 37706 ft | 453 kts | 223° |
| 2026-05-07 12:47 | 49.10018 | 8.73002 | 37226 ft | 453 kts | 223° |
| 2026-05-07 12:47 | 49.07691 | 8.69840 | 36704 ft | 451 kts | 223° |
| 2026-05-07 12:47 | 49.05334 | 8.66642 | 36141 ft | 449 kts | 223° |
| 2026-05-07 12:47 | 49.03010 | 8.63492 | 35603 ft | 448 kts | 223° |
| 2026-05-07 12:48 | 49.00663 | 8.60315 | 35037 ft | 449 kts | 223° |
| 2026-05-07 12:48 | 48.98272 | 8.57220 | 34450 ft | 451 kts | 220° |
| 2026-05-07 12:48 | 48.95782 | 8.54372 | 33881 ft | 453 kts | 218° |
| 2026-05-07 12:48 | 48.93246 | 8.51500 | 33290 ft | 454 kts | 219° |
| 2026-05-07 12:49 | 48.90702 | 8.48616 | 32684 ft | 454 kts | 219° |
| 2026-05-07 12:49 | 48.88308 | 8.45904 | 32060 ft | 455 kts | 218° |
| 2026-05-07 12:49 | 48.85763 | 8.43024 | 31363 ft | 455 kts | 218° |
| 2026-05-07 12:49 | 48.83221 | 8.40151 | 30614 ft | 455 kts | 218° |
| 2026-05-07 12:50 | 48.80670 | 8.37269 | 29932 ft | 453 kts | 218° |
| 2026-05-07 12:50 | 48.78133 | 8.34414 | 29369 ft | 449 kts | 218° |
| 2026-05-07 12:50 | 48.75634 | 8.31630 | 28769 ft | 446 kts | 218° |
| 2026-05-07 12:50 | 48.73092 | 8.28804 | 28170 ft | 442 kts | 218° |
| 2026-05-07 12:51 | 48.70642 | 8.26083 | 27585 ft | 438 kts | 218° |
| 2026-05-07 12:51 | 48.68172 | 8.23342 | 27003 ft | 434 kts | 218° |
| 2026-05-07 12:51 | 48.65754 | 8.20661 | 26431 ft | 430 kts | 218° |
| 2026-05-07 12:51 | 48.63356 | 8.18006 | 25866 ft | 426 kts | 218° |
| 2026-05-07 12:52 | 48.60974 | 8.15370 | 25292 ft | 423 kts | 218° |
| 2026-05-07 12:52 | 48.58600 | 8.12747 | 24737 ft | 418 kts | 218° |
| 2026-05-07 12:52 | 48.56259 | 8.10163 | 24183 ft | 415 kts | 218° |
| 2026-05-07 12:52 | 48.53922 | 8.07586 | 23638 ft | 411 kts | 218° |
| 2026-05-07 12:53 | 48.51610 | 8.05039 | 23085 ft | 408 kts | 218° |
| 2026-05-07 12:53 | 48.49314 | 8.02512 | 22539 ft | 405 kts | 218° |
| 2026-05-07 12:53 | 48.47034 | 8.00006 | 22002 ft | 401 kts | 218° |
| 2026-05-07 12:53 | 48.44782 | 7.97533 | 21469 ft | 399 kts | 218° |
| 2026-05-07 12:54 | 48.42552 | 7.95087 | 20946 ft | 396 kts | 218° |
| 2026-05-07 12:54 | 48.40325 | 7.92647 | 20416 ft | 393 kts | 217° |
| 2026-05-07 12:54 | 48.38100 | 7.90251 | 19899 ft | 389 kts | 214° |
| 2026-05-07 12:54 | 48.35668 | 7.88523 | 19381 ft | 387 kts | 198° |
| 2026-05-07 12:55 | 48.33018 | 7.87808 | 18845 ft | 383 kts | 188° |
| 2026-05-07 12:55 | 48.30381 | 7.87380 | 18330 ft | 377 kts | 188° |
| 2026-05-07 12:55 | 48.27771 | 7.86945 | 17830 ft | 372 kts | 188° |
| 2026-05-07 12:55 | 48.25197 | 7.86514 | 17338 ft | 366 kts | 188° |
| 2026-05-07 12:56 | 48.22695 | 7.86095 | 16855 ft | 359 kts | 188° |
| 2026-05-07 12:56 | 48.20231 | 7.85553 | 16365 ft | 351 kts | 196° |
| 2026-05-07 12:56 | 48.17996 | 7.84164 | 15792 ft | 344 kts | 213° |
| 2026-05-07 12:56 | 48.16190 | 7.81901 | 15271 ft | 336 kts | 230° |
| 2026-05-07 12:57 | 48.14925 | 7.79046 | 14669 ft | 333 kts | 245° |
| 2026-05-07 12:57 | 48.14255 | 7.75704 | 14060 ft | 329 kts | 262° |
| 2026-05-07 12:57 | 48.14087 | 7.72372 | 13702 ft | 320 kts | 267° |
| 2026-05-07 12:57 | 48.13966 | 7.69053 | 13277 ft | 313 kts | 266° |
| 2026-05-07 12:58 | 48.13844 | 7.65844 | 12862 ft | 308 kts | 266° |
| 2026-05-07 12:58 | 48.13723 | 7.62665 | 12480 ft | 303 kts | 266° |
| 2026-05-07 12:58 | 48.13604 | 7.59523 | 12061 ft | 298 kts | 266° |
| 2026-05-07 12:58 | 48.13484 | 7.56439 | 11678 ft | 294 kts | 266° |
| 2026-05-07 12:59 | 48.13026 | 7.53498 | 11248 ft | 290 kts | 243° |
| 2026-05-07 12:59 | 48.11715 | 7.51233 | 10769 ft | 289 kts | 215° |
| 2026-05-07 12:59 | 48.09858 | 7.50129 | 10250 ft | 291 kts | 195° |
| 2026-05-07 12:59 | 48.07877 | 7.49486 | 9762 ft | 289 kts | 193° |
| 2026-05-07 13:00 | 48.05923 | 7.48886 | 9456 ft | 282 kts | 193° |
| 2026-05-07 13:00 | 48.04003 | 7.48294 | 9062 ft | 279 kts | 193° |
| 2026-05-07 13:00 | 48.02107 | 7.47706 | 8599 ft | 277 kts | 193° |
| 2026-05-07 13:00 | 48.00226 | 7.47117 | 8161 ft | 276 kts | 193° |
| 2026-05-07 13:01 | 47.98325 | 7.46514 | 7694 ft | 275 kts | 193° |
| 2026-05-07 13:01 | 47.96441 | 7.45909 | 7242 ft | 274 kts | 193° |
| 2026-05-07 13:01 | 47.94592 | 7.45299 | 6785 ft | 273 kts | 195° |
| 2026-05-07 13:01 | 47.92796 | 7.44368 | 6308 ft | 272 kts | 203° |
| 2026-05-07 13:02 | 47.91032 | 7.43276 | 5839 ft | 271 kts | 204° |
| 2026-05-07 13:02 | 47.89433 | 7.42276 | 5425 ft | 270 kts | 204° |
| 2026-05-07 13:02 | 47.87727 | 7.41210 | 5244 ft | 257 kts | 204° |
| 2026-05-07 13:02 | 47.86121 | 7.40205 | 5145 ft | 243 kts | 204° |
| 2026-05-07 13:03 | 47.84578 | 7.39240 | 4851 ft | 239 kts | 204° |
| 2026-05-07 13:03 | 47.83054 | 7.38287 | 4512 ft | 237 kts | 204° |
| 2026-05-07 13:03 | 47.81490 | 7.37501 | 4147 ft | 236 kts | 185° |
| 2026-05-07 13:03 | 47.79951 | 7.38056 | 3976 ft | 228 kts | 146° |
| 2026-05-07 13:04 | 47.78593 | 7.39376 | 3968 ft | 234 kts | 155° |
| 2026-05-07 13:04 | 47.77093 | 7.40300 | 3970 ft | 234 kts | 156° |
| 2026-05-07 13:04 | 47.75632 | 7.41321 | 3781 ft | 227 kts | 155° |
| 2026-05-07 13:04 | 47.74224 | 7.42294 | 3506 ft | 214 kts | 155° |
| 2026-05-07 13:05 | 47.72890 | 7.43224 | 3235 ft | 212 kts | 154° |
| 2026-05-07 13:05 | 47.71551 | 7.44161 | 2958 ft | 212 kts | 155° |
| 2026-05-07 13:05 | 47.70227 | 7.45085 | 2686 ft | 205 kts | 155° |
| 2026-05-07 13:05 | 47.68968 | 7.45965 | 2414 ft | 193 kts | 155° |
| 2026-05-07 13:06 | 47.67816 | 7.46771 | 2161 ft | 170 kts | 156° |
| 2026-05-07 13:06 | 47.66830 | 7.47461 | 2006 ft | 143 kts | 156° |
| 2026-05-07 13:06 | 47.65935 | 7.48086 | 1796 ft | 141 kts | 156° |
| 2026-05-07 13:06 | 47.65042 | 7.48706 | 1599 ft | 139 kts | 157° |
| 2026-05-07 13:07 | 47.64166 | 7.49336 | 1386 ft | 140 kts | 155° |
| 2026-05-07 13:07 | 47.63290 | 7.49933 | 1266 ft | 131 kts | 158° |
| 2026-05-07 13:07 | 47.62464 | 7.50506 | 1064 ft | 130 kts | 156° |
| 2026-05-07 13:07 | 47.61637 | 7.51081 | 898 ft | 133 kts | 155° |
| 2026-05-07 13:08 | 47.60854 | 7.51623 | 877 ft | 109 kts | 156° |
| 2026-05-07 13:08 | 47.60328 | 7.51989 | 883 ft | 55 kts | 154° |
| 2026-05-07 13:08 | 47.60129 | 7.52126 | 885 ft | 14 kts | 150° |
| 2026-05-07 13:08 | 47.60121 | 7.52224 | 885 ft | 9 kts | 64° |
| 2026-05-07 13:09 | 47.60149 | 7.52310 | 885 ft | 8 kts | 65° |
| 2026-05-07 13:09 | 47.60167 | 7.52368 | 884 ft | 8 kts | 65° |
| 2026-05-07 13:09 | 47.60191 | 7.52448 | 884 ft | 5 kts | 73° |
| 2026-05-07 13:09 | 47.60183 | 7.52478 | 884 ft | 3 kts | 150° |
| 2026-05-07 13:10 | 47.60160 | 7.52496 | 884 ft | 3 kts | 153° |
| 2026-05-07 13:10 | 47.60164 | 7.52541 | 884 ft | 4 kts | 63° |
| 2026-05-07 13:10 | 47.60170 | 7.52564 | 884 ft | 0 kts | 65° |